Terminal Aerodrome Forecast
Issued by NWS

Home | Current Version | Previous Version | Text Only | Print | Product List | Glossary On
Versions: 1 2 3 4 5 6 7 8 9 10 11 12 13 14 15 16 17 18 19 20 21 22 23 24 25 26 27 28 29 30
865
FTUS41 KBOX 080924 AAA
TAFACK
TAF AMD
KACK 080924Z 0809/0906 06027G45KT 1SM -SN OVC008
     FM081030 05030G50KT 1/2SM SN OVC008
     FM081200 04031G47KT 1/4SM +SN OVC008
     FM081600 03033G55KT 1/4SM +SN OVC008
     FM081800 02035G52KT 1SM -SN OVC010
     FM090300 01016G29KT 3SM -SHSN OVC015=

USA.gov is the U.S. government's official web portal to all federal, state and local government web resources and services.